LIM260 LICC-LICR
Flight info
| Callsign | LIM260 |
|---|---|
| Flight time | 0h 30m |
| Altitude | 6000 |
| Route | TOCLA DCT NATOV DCT CR406/N0146F070 DCT LONDA |
| Aircraft | C208/L-SDFGRY/C |
Departure
| Time | 2026-04-26 07:24 |
|---|---|
| Airport | Catania-Fontanarossa Airport (LICC) |
Arrival
| Time | 2026-04-26 07:54 |
|---|---|
| Airport | Reggio Calabria Airport (LICR) |
| Time | Latitude | Longitude | Altitude | Speed | Heading |
|---|---|---|---|---|---|
| 2026-04-26 07:16 | 37.46975 | 15.05841 | 30 ft | 0 kts | 160° |
| 2026-04-26 07:16 | 37.46976 | 15.05841 | 30 ft | 0 kts | 160° |
| 2026-04-26 07:20 | 37.46976 | 15.05840 | 30 ft | 0 kts | 160° |
| 2026-04-26 07:20 | 37.46970 | 15.05844 | 30 ft | 4 kts | 144° |
| 2026-04-26 07:20 | 37.47007 | 15.05819 | 30 ft | 12 kts | 277° |
| 2026-04-26 07:21 | 37.46984 | 15.05707 | 30 ft | 20 kts | 234° |
| 2026-04-26 07:21 | 37.46853 | 15.05550 | 30 ft | 30 kts | 221° |
| 2026-04-26 07:21 | 37.46751 | 15.05513 | 30 ft | 16 kts | 89° |
| 2026-04-26 07:21 | 37.46772 | 15.05723 | 30 ft | 31 kts | 82° |
| 2026-04-26 07:22 | 37.46795 | 15.06008 | 30 ft | 29 kts | 84° |
| 2026-04-26 07:22 | 37.46816 | 15.06292 | 30 ft | 28 kts | 83° |
| 2026-04-26 07:22 | 37.46846 | 15.06596 | 30 ft | 41 kts | 82° |
| 2026-04-26 07:22 | 37.46861 | 15.06824 | 30 ft | 21 kts | 95° |
| 2026-04-26 07:23 | 37.46791 | 15.06913 | 32 ft | 16 kts | 162° |
| 2026-04-26 07:23 | 37.46710 | 15.06909 | 35 ft | 14 kts | 242° |
| 2026-04-26 07:23 | 37.46690 | 15.06762 | 34 ft | 34 kts | 263° |
| 2026-04-26 07:23 | 37.46644 | 15.06242 | 34 ft | 82 kts | 264° |
| 2026-04-26 07:24 | 37.46576 | 15.05419 | 102 ft | 109 kts | 264° |
| 2026-04-26 07:24 | 37.46521 | 15.04442 | 486 ft | 106 kts | 265° |
| 2026-04-26 07:24 | 37.46476 | 15.03480 | 823 ft | 107 kts | 265° |
| 2026-04-26 07:24 | 37.46401 | 15.02580 | 1250 ft | 105 kts | 263° |
| 2026-04-26 07:25 | 37.46311 | 15.01614 | 1644 ft | 116 kts | 264° |
| 2026-04-26 07:25 | 37.46219 | 15.00585 | 2039 ft | 124 kts | 263° |
| 2026-04-26 07:25 | 37.46117 | 14.99464 | 2437 ft | 131 kts | 263° |
| 2026-04-26 07:25 | 37.46018 | 14.98301 | 2826 ft | 136 kts | 263° |
| 2026-04-26 07:26 | 37.45914 | 14.97113 | 3209 ft | 137 kts | 263° |
| 2026-04-26 07:26 | 37.45811 | 14.95909 | 3588 ft | 139 kts | 263° |
| 2026-04-26 07:26 | 37.45705 | 14.94693 | 3959 ft | 140 kts | 263° |
| 2026-04-26 07:26 | 37.45600 | 14.93495 | 4331 ft | 140 kts | 263° |
| 2026-04-26 07:27 | 37.45492 | 14.92256 | 4711 ft | 141 kts | 263° |
| 2026-04-26 07:27 | 37.45386 | 14.91049 | 5079 ft | 140 kts | 263° |
| 2026-04-26 07:27 | 37.45278 | 14.89820 | 5449 ft | 139 kts | 263° |
| 2026-04-26 07:27 | 37.45171 | 14.88598 | 5821 ft | 141 kts | 263° |
| 2026-04-26 07:28 | 37.45060 | 14.87329 | 6004 ft | 157 kts | 263° |
| 2026-04-26 07:28 | 37.44933 | 14.85895 | 6014 ft | 171 kts | 263° |
| 2026-04-26 07:28 | 37.44797 | 14.84372 | 6012 ft | 179 kts | 263° |
| 2026-04-26 07:28 | 37.44657 | 14.82802 | 6011 ft | 182 kts | 263° |
| 2026-04-26 07:29 | 37.44521 | 14.81253 | 6008 ft | 177 kts | 263° |
| 2026-04-26 07:29 | 37.44388 | 14.79731 | 6003 ft | 173 kts | 263° |
| 2026-04-26 07:29 | 37.44341 | 14.78227 | 5993 ft | 172 kts | 278° |
| 2026-04-26 07:29 | 37.44784 | 14.76847 | 5990 ft | 171 kts | 304° |
| 2026-04-26 07:30 | 37.45642 | 14.75832 | 5993 ft | 170 kts | 330° |
| 2026-04-26 07:30 | 37.46751 | 14.75370 | 5989 ft | 168 kts | 354° |
| 2026-04-26 07:30 | 37.47919 | 14.75230 | 5995 ft | 170 kts | 355° |
| 2026-04-26 07:30 | 37.49109 | 14.75058 | 5998 ft | 173 kts | 354° |
| 2026-04-26 07:31 | 37.50312 | 14.74888 | 6002 ft | 175 kts | 355° |
| 2026-04-26 07:31 | 37.51525 | 14.74738 | 6008 ft | 176 kts | 358° |
| 2026-04-26 07:31 | 37.52703 | 14.75065 | 6000 ft | 174 kts | 26° |
| 2026-04-26 07:31 | 37.53655 | 14.75988 | 6000 ft | 174 kts | 51° |
| 2026-04-26 07:32 | 37.54212 | 14.77324 | 5998 ft | 174 kts | 75° |
| 2026-04-26 07:32 | 37.54370 | 14.78837 | 6001 ft | 175 kts | 85° |
| 2026-04-26 07:32 | 37.54501 | 14.80359 | 6007 ft | 175 kts | 84° |
| 2026-04-26 07:32 | 37.54638 | 14.81885 | 6007 ft | 176 kts | 84° |
| 2026-04-26 07:33 | 37.54772 | 14.83414 | 6006 ft | 176 kts | 84° |
| 2026-04-26 07:33 | 37.54902 | 14.84946 | 6008 ft | 176 kts | 84° |
| 2026-04-26 07:33 | 37.55033 | 14.86483 | 6007 ft | 176 kts | 84° |
| 2026-04-26 07:33 | 37.55167 | 14.88018 | 6003 ft | 176 kts | 84° |
| 2026-04-26 07:34 | 37.55298 | 14.89550 | 6004 ft | 176 kts | 84° |
| 2026-04-26 07:34 | 37.55427 | 14.91087 | 6005 ft | 176 kts | 84° |
| 2026-04-26 07:34 | 37.55557 | 14.92623 | 6000 ft | 176 kts | 84° |
| 2026-04-26 07:34 | 37.55646 | 14.94162 | 5998 ft | 176 kts | 91° |
| 2026-04-26 07:35 | 37.55614 | 14.95699 | 5997 ft | 175 kts | 91° |
| 2026-04-26 07:35 | 37.55596 | 14.97237 | 5996 ft | 175 kts | 91° |
| 2026-04-26 07:35 | 37.55578 | 14.98773 | 5997 ft | 176 kts | 91° |
| 2026-04-26 07:35 | 37.55559 | 15.00310 | 5998 ft | 176 kts | 91° |
| 2026-04-26 07:36 | 37.55540 | 15.01851 | 5993 ft | 175 kts | 91° |
| 2026-04-26 07:36 | 37.55523 | 15.03386 | 5997 ft | 176 kts | 91° |
| 2026-04-26 07:36 | 37.55502 | 15.04925 | 5999 ft | 176 kts | 91° |
| 2026-04-26 07:36 | 37.55481 | 15.06469 | 5998 ft | 176 kts | 91° |
| 2026-04-26 07:37 | 37.55462 | 15.08006 | 5997 ft | 175 kts | 91° |
| 2026-04-26 07:37 | 37.55441 | 15.09544 | 5998 ft | 176 kts | 91° |
| 2026-04-26 07:37 | 37.55421 | 15.11083 | 5996 ft | 176 kts | 91° |
| 2026-04-26 07:37 | 37.55400 | 15.12627 | 5998 ft | 177 kts | 91° |
| 2026-04-26 07:38 | 37.55377 | 15.14181 | 6003 ft | 178 kts | 91° |
| 2026-04-26 07:38 | 37.55356 | 15.15744 | 5999 ft | 179 kts | 91° |
| 2026-04-26 07:38 | 37.55336 | 15.17307 | 5997 ft | 178 kts | 91° |
| 2026-04-26 07:38 | 37.55313 | 15.18865 | 5998 ft | 178 kts | 91° |
| 2026-04-26 07:39 | 37.55344 | 15.20422 | 5995 ft | 178 kts | 80° |
| 2026-04-26 07:39 | 37.55844 | 15.21837 | 5994 ft | 179 kts | 54° |
| 2026-04-26 07:39 | 37.56629 | 15.23021 | 5996 ft | 179 kts | 50° |
| 2026-04-26 07:39 | 37.57430 | 15.24245 | 5996 ft | 179 kts | 51° |
| 2026-04-26 07:40 | 37.58206 | 15.25441 | 5997 ft | 179 kts | 51° |
| 2026-04-26 07:40 | 37.58996 | 15.26651 | 5998 ft | 179 kts | 51° |
| 2026-04-26 07:40 | 37.59786 | 15.27860 | 5999 ft | 179 kts | 51° |
| 2026-04-26 07:40 | 37.60576 | 15.29071 | 5998 ft | 179 kts | 51° |
| 2026-04-26 07:41 | 37.61366 | 15.30282 | 6000 ft | 179 kts | 51° |
| 2026-04-26 07:41 | 37.62156 | 15.31492 | 6000 ft | 179 kts | 51° |
| 2026-04-26 07:41 | 37.62947 | 15.32705 | 5997 ft | 179 kts | 51° |
| 2026-04-26 07:41 | 37.63737 | 15.33917 | 6002 ft | 179 kts | 51° |
| 2026-04-26 07:42 | 37.64261 | 15.34722 | 6003 ft | 179 kts | 51° |
| 2026-04-26 07:42 | 37.65052 | 15.35935 | 6000 ft | 179 kts | 51° |
| 2026-04-26 07:42 | 37.65843 | 15.37149 | 6002 ft | 179 kts | 51° |
| 2026-04-26 07:42 | 37.66630 | 15.38364 | 5994 ft | 179 kts | 51° |
| 2026-04-26 07:43 | 37.67416 | 15.39615 | 5989 ft | 179 kts | 52° |
| 2026-04-26 07:43 | 37.68151 | 15.40855 | 5985 ft | 179 kts | 54° |
| 2026-04-26 07:43 | 37.68855 | 15.42152 | 5978 ft | 179 kts | 57° |
| 2026-04-26 07:43 | 37.69517 | 15.43508 | 5976 ft | 179 kts | 60° |
| 2026-04-26 07:44 | 37.70094 | 15.44872 | 5979 ft | 179 kts | 64° |
| 2026-04-26 07:44 | 37.70603 | 15.46303 | 5979 ft | 178 kts | 66° |
| 2026-04-26 07:44 | 37.71430 | 15.47439 | 5949 ft | 178 kts | 30° |
| 2026-04-26 07:44 | 37.72555 | 15.47963 | 5695 ft | 169 kts | 15° |
| 2026-04-26 07:45 | 37.73673 | 15.48365 | 5439 ft | 165 kts | 17° |
| 2026-04-26 07:45 | 37.74767 | 15.48797 | 5195 ft | 164 kts | 18° |
| 2026-04-26 07:45 | 37.75852 | 15.49236 | 4946 ft | 163 kts | 18° |
| 2026-04-26 07:45 | 37.76932 | 15.49673 | 4691 ft | 164 kts | 18° |
| 2026-04-26 07:46 | 37.78041 | 15.50123 | 4444 ft | 170 kts | 18° |
| 2026-04-26 07:46 | 37.79175 | 15.50581 | 4200 ft | 172 kts | 18° |
| 2026-04-26 07:46 | 37.80314 | 15.51042 | 3956 ft | 172 kts | 18° |
| 2026-04-26 07:46 | 37.81449 | 15.51502 | 3711 ft | 171 kts | 18° |
| 2026-04-26 07:47 | 37.82581 | 15.51960 | 3468 ft | 171 kts | 17° |
| 2026-04-26 07:47 | 37.83709 | 15.52418 | 3220 ft | 170 kts | 17° |
| 2026-04-26 07:47 | 37.84832 | 15.52874 | 3008 ft | 167 kts | 17° |
| 2026-04-26 07:47 | 37.85905 | 15.53311 | 2999 ft | 158 kts | 17° |
| 2026-04-26 07:48 | 37.86934 | 15.53733 | 2990 ft | 154 kts | 17° |
| 2026-04-26 07:48 | 37.87945 | 15.54151 | 2982 ft | 152 kts | 17° |
| 2026-04-26 07:48 | 37.88851 | 15.54526 | 2787 ft | 159 kts | 18° |
| 2026-04-26 07:48 | 37.89812 | 15.55231 | 2556 ft | 162 kts | 34° |
| 2026-04-26 07:49 | 37.90703 | 15.56070 | 2504 ft | 155 kts | 34° |
| 2026-04-26 07:49 | 37.91559 | 15.56876 | 2494 ft | 152 kts | 35° |
| 2026-04-26 07:49 | 37.92405 | 15.57669 | 2491 ft | 151 kts | 35° |
| 2026-04-26 07:50 | 37.94076 | 15.59240 | 2483 ft | 149 kts | 35° |
| 2026-04-26 07:50 | 37.94928 | 15.60041 | 2227 ft | 154 kts | 35° |
| 2026-04-26 07:50 | 37.95780 | 15.60852 | 2006 ft | 146 kts | 35° |
| 2026-04-26 07:50 | 37.96545 | 15.61585 | 1989 ft | 133 kts | 35° |
| 2026-04-26 07:51 | 37.97268 | 15.62274 | 1975 ft | 129 kts | 34° |
| 2026-04-26 07:51 | 37.98003 | 15.62985 | 1811 ft | 135 kts | 34° |
| 2026-04-26 07:51 | 37.98771 | 15.63639 | 1764 ft | 129 kts | 30° |
| 2026-04-26 07:51 | 37.99543 | 15.64204 | 1713 ft | 127 kts | 27° |
| 2026-04-26 07:52 | 38.00326 | 15.64768 | 1645 ft | 127 kts | 27° |
| 2026-04-26 07:52 | 38.01095 | 15.65279 | 1512 ft | 124 kts | 24° |
| 2026-04-26 07:52 | 38.01828 | 15.65664 | 1405 ft | 111 kts | 21° |
| 2026-04-26 07:52 | 38.02543 | 15.66018 | 1239 ft | 108 kts | 15° |
| 2026-04-26 07:53 | 38.03290 | 15.66239 | 982 ft | 111 kts | 7° |
| 2026-04-26 07:53 | 38.04046 | 15.66354 | 817 ft | 105 kts | 4° |
| 2026-04-26 07:53 | 38.04716 | 15.66375 | 650 ft | 94 kts | 358° |
| 2026-04-26 07:53 | 38.05300 | 15.66248 | 478 ft | 80 kts | 345° |
| 2026-04-26 07:54 | 38.05802 | 15.66009 | 306 ft | 76 kts | 336° |
| 2026-04-26 07:54 | 38.06250 | 15.65708 | 156 ft | 71 kts | 333° |
| 2026-04-26 07:54 | 38.06681 | 15.65444 | 55 ft | 67 kts | 332° |
| 2026-04-26 07:54 | 38.07045 | 15.65207 | 38 ft | 48 kts | 332° |
| 2026-04-26 07:55 | 38.07225 | 15.65090 | 44 ft | 10 kts | 335° |
| 2026-04-26 07:55 | 38.07301 | 15.65134 | 48 ft | 16 kts | 68° |
| 2026-04-26 07:55 | 38.07350 | 15.65226 | 48 ft | 11 kts | 12° |
| 2026-04-26 07:55 | 38.07416 | 15.65177 | 48 ft | 10 kts | 284° |
| 2026-04-26 07:56 | 38.07451 | 15.65084 | 48 ft | 8 kts | 346° |
| 2026-04-26 07:56 | 38.07474 | 15.65115 | 48 ft | 0 kts | 70° |